Latest Weather Observations for Condobolin Airport

IDN60801

Issued at 1:05 pm EDT Sunday 23 November 2014 (issued every 30 minutes, with the page automatically refreshed every 10 minutes)

About weather observations | Map of weather stations | Latest weather observations for NSW | Other Formats
Station Details ID: 050137 Name: CONDOBOLIN AIRPORT AWS Lat: -33.07 Lon: 147.21 Height: 192.6 m
Data from the previous 72 hours. | See also: Recent months at Condobolin Airport
Date/Time
EDT
Temp
°C
App
Temp
°C
Dew
Point
Rel
Hum
%
Delta-T
°C
Wind Press
QNH
hPa
Press
MSL
hPa
Rain
since 9 am
mm
Dir
 
Spd
km/h
Gust
km/h
Spd
kts
Gust
kts
23/01:00pm 41.6 33.7 2.3 9 21.1 NW 33 46 18 25 1008.9 1008.1 0.0
23/12:30pm 42.6 33.7 3.1 9 21.6 NW 39 57 21 31 1009.2 1008.4 0.0
23/12:01pm 42.2 34.4 2.8 9 21.3 NNW 33 54 18 29 1009.5 1008.8 0.0
23/12:00pm 41.8 34.1 2.5 9 21.2 NNW 32 46 17 25 1009.6 1008.9 0.0
23/11:52am 42.7 35.5 3.1 9 21.6 NNW 30 48 16 26 1009.7 1009.0 0.0
23/11:30am 41.5 32.5 2.3 9 21.0 NNW 39 54 21 29 1009.9 1009.2 0.0
23/11:00am 40.2 31.4 1.3 9 20.4 NNW 37 52 20 28 1010.0 1009.3 0.0
23/10:30am 38.5 29.3 1.5 10 19.3 N 39 50 21 27 1010.0 1009.3 0.0
23/10:00am 38.7 29.6 1.6 10 19.4 N 39 50 21 27 1009.9 1009.2 0.0
23/09:30am 38.5 30.3 2.8 11 19.0 N 35 48 19 26 1009.7 1009.0 0.0
23/09:00am 36.4 28.9 3.6 13 17.5 N 32 41 17 22 1009.6 1008.9 0.0
23/08:30am 34.1 26.7 3.8 15 16.0 N 32 39 17 21 1009.5 1008.8 0.0
23/08:00am 32.4 25.8 4.2 17 14.8 N 28 35 15 19 1009.4 1008.6 0.0
23/07:59am 32.4 26.2 4.2 17 14.8 N 26 35 14 19 1009.4 1008.6 0.0
23/07:30am 27.3 24.7 6.1 26 11.2 E 9 11 5 6 1009.4 1008.6 0.0
23/07:00am 24.9 23.1 7.1 32 9.4 E 6 9 3 5 1009.4 1008.6 0.0
23/06:30am 21.9 19.5 7.0 38 7.7 E 9 13 5 7 1009.3 1008.5 0.0
23/06:00am 22.0 19.4 6.3 36 8.0 E 9 11 5 6 1009.1 1008.3 0.0
23/05:30am 21.9 19.4 6.6 37 7.9 E 9 11 5 6 1008.8 1008.0 0.0
23/05:00am 23.9 20.9 5.8 31 9.3 E 11 13 6 7 1008.5 1007.8 0.0
23/04:30am 24.1 21.5 5.9 31 9.4 NE 9 15 5 8 1008.7 1007.9 0.0
23/04:00am 24.8 21.7 5.6 29 9.9 NE 11 15 6 8 1009.0 1008.2 0.0
23/03:30am 25.9 21.7 5.5 27 10.5 ENE 17 24 9 13 1009.2 1008.4 0.0
23/03:20am 25.7 22.7 5.8 28 10.3 ESE 11 17 6 9 1009.3 1008.5 0.0
23/03:00am 25.7 23.5 6.3 29 10.2 SSW 7 15 4 8 1011.3 1010.6 0.0
23/02:30am 26.4 22.7 6.4 28 10.5 SSW 15 20 8 11 1010.5 1009.8 0.0
23/02:00am 27.2 22.7 7.1 28 10.8 S 20 32 11 17 1010.6 1009.9 0.0
23/01:30am 24.2 23.7 12.5 48 6.8 SW 7 11 4 6 1010.3 1009.6 0.0
23/01:00am 23.3 21.8 10.7 45 7.0 SW 9 11 5 6 1010.0 1009.3 0.0
23/12:30am 24.9 25.3 11.1 42 7.8 CALM 0 0 0 0 1010.0 1009.3 0.0
23/12:00am 25.8 26.0 10.4 38 8.7 SW 0 0 0 0 1010.3 1009.6 0.0
 
Date/Time
EDT
Temp
°C
App
Temp
°C
Dew
Point
Rel
Hum
%
Delta-T
°C
Wind Press
QNH
hPa
Press
MSL
hPa
Rain
since 9 am
mm
Dir
 
Spd
km/h
Gust
km/h
Spd
kts
Gust
kts
22/11:30pm 28.1 26.8 11.2 35 9.7 NE 9 15 5 8 1010.6 1009.9 0.0
22/11:00pm 28.4 25.9 8.1 28 11.1 W 11 15 6 8 1010.2 1009.5 0.0
22/10:41pm 27.9 23.3 8.2 29 10.8 ENE 22 28 12 15 1010.0 1009.3 0.0
22/10:30pm 27.4 24.0 9.3 32 10.1 WSW 17 22 9 12 1012.1 1011.4 0.0
22/10:00pm 26.0 25.4 7.6 31 9.9 CALM 0 6 0 3 1010.6 1009.9 0.0
22/09:30pm 28.8 28.1 6.8 25 11.8 CALM 0 0 0 0 1010.3 1009.6 0.0
22/09:00pm 29.5 28.6 6.2 23 12.5 CALM 0 0 0 0 1010.2 1009.5 0.0
22/08:30pm 31.2 29.3 4.9 19 13.9 SW 4 7 2 4 1010.0 1009.3 0.0
22/08:00pm 32.5 30.1 5.1 18 14.6 SW 7 9 4 5 1009.8 1009.1 0.0
22/07:30pm 34.3 30.7 4.9 16 15.8 WSW 13 20 7 11 1009.4 1008.6 0.0
22/07:00pm 35.7 30.4 5.1 15 16.6 WSW 22 28 12 15 1009.4 1008.6 0.0
22/06:30pm 36.7 31.0 4.9 14 17.3 WSW 24 30 13 16 1009.2 1008.4 0.0
22/06:00pm 36.1 31.1 4.4 14 17.1 W 20 30 11 16 1008.8 1008.0 0.0
22/05:30pm 37.4 31.4 3.2 12 18.2 WSW 24 33 13 18 1008.7 1007.9 0.0
22/05:00pm 38.3 32.0 1.3 10 19.2 W 24 32 13 17 1008.7 1007.9 0.0
22/04:30pm 38.5 31.4 1.5 10 19.3 W 28 48 15 26 1008.8 1008.0 0.0
22/04:29pm 38.4 30.9 1.4 10 19.2 W 30 48 16 26 1008.9 1008.1 0.0
22/04:00pm 37.4 30.8 2.0 11 18.5 W 26 32 14 17 1009.2 1008.4 0.0
22/03:36pm 37.0 30.0 1.7 11 18.3 W 28 46 15 25 1009.6 1008.9 0.0
22/03:30pm 37.2 28.8 1.8 11 18.4 W 35 46 19 25 1009.6 1008.9 0.0
22/03:00pm 37.5 31.5 3.3 12 18.2 NW 24 39 13 21 1010.0 1009.3 0.0
22/02:46pm 38.9 32.1 3.1 11 19.1 NW 28 46 15 25 1010.2 1009.5 0.0
22/02:30pm 37.6 30.9 3.4 12 18.2 WNW 28 37 15 20 1010.4 1009.7 0.0
22/02:00pm 37.0 30.9 2.9 12 18.0 NNW 24 32 13 17 1010.6 1009.9 0.0
22/01:30pm 38.0 32.8 3.7 12 18.4 NW 20 28 11 15 1010.9 1010.2 0.0
22/01:00pm 35.9 31.2 3.2 13 17.2 NNW 17 28 9 15 1011.1 1010.4 0.0
22/12:30pm 36.0 30.9 4.3 14 17.0 N 20 26 11 14 1011.3 1010.6 0.0
22/12:00pm 35.5 30.4 3.9 14 16.8 NW 20 33 11 18 1011.7 1011.0 0.0
22/11:30am 35.1 30.9 5.5 16 16.1 NW 17 24 9 13 1011.7 1011.0 0.0
22/11:00am 34.6 30.3 5.1 16 15.9 NW 17 30 9 16 1012.0 1011.3 0.0
22/10:30am 32.9 28.8 4.6 17 15.0 N 15 24 8 13 1012.1 1011.4 0.0
22/10:00am 32.9 29.4 5.5 18 14.7 NE 13 22 7 12 1012.2 1011.5 0.0
22/09:30am 31.1 27.6 5.5 20 13.6 NE 13 19 7 10 1012.5 1011.8 0.0
22/09:00am 29.7 26.2 7.0 24 12.3 ENE 15 19 8 10 1012.7 1012.0 0.0
22/08:30am 27.3 24.4 8.2 30 10.4 E 13 17 7 9 1012.7 1012.0 0.0
22/08:00am 25.4 23.6 8.0 33 9.4 SSW 7 11 4 6 1012.6 1011.9 0.0
22/07:30am 22.9 22.5 8.2 39 7.8 CALM 0 0 0 0 1012.6 1011.9 0.0
22/07:00am 20.1 19.2 9.4 50 5.7 SW 4 7 2 4 1012.4 1011.7 0.0
22/06:30am 16.1 16.0 9.5 65 3.5 CALM 0 0 0 0 1011.9 1011.2 0.0
22/06:00am 15.1 14.7 8.3 64 3.5 CALM 0 0 0 0 1011.5 1010.8 0.0
22/05:30am 15.3 15.0 8.8 65 3.3 CALM 0 0 0 0 1011.3 1010.6 0.0
22/05:00am 15.5 15.2 8.7 64 3.5 CALM 0 0 0 0 1011.0 1010.3 0.0
22/04:30am 15.4 14.7 8.4 63 3.6 SW 2 6 1 3 1010.9 1010.2 0.0
22/04:00am 15.6 14.1 8.6 63 3.6 SW 6 7 3 4 1010.9 1010.2 0.0
22/03:30am 16.3 16.0 8.5 60 4.0 CALM 0 0 0 0 1011.0 1010.3 0.0
22/03:00am 17.1 16.8 8.5 57 4.5 CALM 0 0 0 0 1011.2 1010.5 0.0
22/02:30am 18.0 17.7 8.6 54 4.9 CALM 0 0 0 0 1011.3 1010.6 0.0
22/02:00am 18.6 18.1 8.0 50 5.5 CALM 0 0 0 0 1011.4 1010.7 0.0
22/01:30am 19.1 18.3 8.1 49 5.7 SW 2 6 1 3 1011.6 1010.9 0.0
22/01:00am 19.1 18.4 8.4 50 5.6 SW 2 6 1 3 1011.6 1010.9 0.0
22/12:30am 19.2 18.4 8.2 49 5.7 SW 2 7 1 4 1011.8 1011.1 0.0
22/12:00am 21.1 20.7 8.4 44 6.7 CALM 0 6 0 3 1012.0 1011.3 0.0
 
Date/Time
EDT
Temp
°C
App
Temp
°C
Dew
Point
Rel
Hum
%
Delta-T
°C
Wind Press
QNH
hPa
Press
MSL
hPa
Rain
since 9 am
mm
Dir
 
Spd
km/h
Gust
km/h
Spd
kts
Gust
kts
21/11:30pm 21.1 20.6 8.0 43 6.9 CALM 0 0 0 0 1011.9 1011.2 0.0
21/11:00pm 23.0 22.4 7.5 37 8.2 CALM 0 0 0 0 1011.9 1011.2 0.0
21/10:30pm 23.4 21.6 7.1 35 8.5 SW 6 7 3 4 1011.9 1011.2 0.0
21/10:00pm 24.1 21.8 7.3 34 8.9 SW 9 11 5 6 1011.7 1011.0 0.0
21/09:30pm 24.4 22.3 5.7 30 9.6 SW 6 7 3 4 1011.5 1010.8 0.0
21/09:00pm 26.0 23.4 6.1 28 10.4 WSW 9 11 5 6 1011.3 1010.6 0.0
21/08:30pm 27.4 24.2 5.1 24 11.5 WSW 11 15 6 8 1010.9 1010.2 0.0
21/08:00pm 29.4 25.3 4.1 20 13.0 WSW 15 20 8 11 1010.5 1009.8 0.0
21/07:30pm 30.9 26.1 4.6 19 13.8 WSW 19 24 10 13 1010.2 1009.5 0.0
21/07:00pm 31.9 25.8 4.6 18 14.4 WSW 26 32 14 17 1009.7 1009.0 0.0
21/06:30pm 32.6 27.3 5.2 18 14.6 WSW 22 32 12 17 1009.3 1008.5 0.0
21/06:00pm 33.6 28.1 6.0 18 15.0 W 24 35 13 19 1009.0 1008.2 0.0
21/05:30pm 33.7 28.1 5.3 17 15.3 W 24 32 13 17 1008.9 1008.1 0.0
21/05:00pm 34.6 28.2 6.8 18 15.4 WSW 30 37 16 20 1008.8 1008.0 0.0
21/04:30pm 33.6 27.2 6.8 19 14.8 W 30 44 16 24 1008.9 1008.1 0.0
21/04:21pm 33.6 27.5 6.8 19 14.8 W 28 50 15 27 1009.0 1008.2 0.0
21/04:00pm 34.3 28.8 7.4 19 15.0 W 26 39 14 21 1008.9 1008.1 0.0
21/03:30pm 34.5 28.8 8.3 20 14.8 W 28 39 15 21 1009.1 1008.3 0.0
21/03:00pm 33.8 27.7 8.4 21 14.4 WSW 30 43 16 23 1009.4 1008.6 0.0
21/02:30pm 33.9 28.8 7.8 20 14.6 W 24 39 13 21 1009.5 1008.8 0.0
21/02:00pm 34.0 29.7 7.9 20 14.7 W 20 33 11 18 1009.7 1009.0 0.0
21/01:30pm 33.5 29.3 8.2 21 14.2 W 20 33 11 18 1009.8 1009.1 0.0
21/01:00pm 33.4 28.2 7.4 20 14.5 W 24 33 13 18 1010.0 1009.3 0.0
21/12:30pm 32.2 28.6 8.4 23 13.4 W 17 24 9 13 1010.2 1009.5 0.0
21/12:00pm 32.5 26.9 8.7 23 13.5 WSW 28 35 15 19 1010.5 1009.8 0.0
21/11:30am 31.2 25.5 8.2 24 12.8 SW 28 35 15 19 1010.8 1010.1 0.0
21/11:00am 30.6 26.4 8.3 25 12.4 W 20 32 11 17 1010.7 1010.0 0.0
21/10:30am 30.3 26.8 8.7 26 12.1 WSW 17 30 9 16 1010.7 1010.0 0.0
21/10:00am 29.5 25.7 9.1 28 11.4 WSW 19 30 10 16 1010.8 1010.1 0.0
21/09:30am 28.8 25.1 9.5 30 10.8 SW 19 24 10 13 1010.8 1010.1 0.0
21/09:00am 28.0 24.1 9.3 31 10.4 SW 20 28 11 15 1010.9 1010.2 0.0
21/08:30am 27.4 24.4 9.3 32 10.1 SW 15 24 8 13 1010.5 1009.8 0.0
21/08:00am 25.4 22.7 10.4 39 8.4 WSW 15 19 8 10 1010.4 1009.7 0.0
21/07:30am 23.6 21.5 9.9 42 7.6 WSW 11 17 6 9 1010.0 1009.3 0.0
21/07:00am 21.5 19.5 10.0 48 6.3 WSW 11 11 6 6 1009.4 1008.6 0.0
21/06:30am 18.6 18.6 9.7 56 4.8 CALM 0 0 0 0 1008.8 1008.0 0.0
21/06:00am 18.9 17.9 8.8 52 5.3 WSW 4 9 2 5 1008.4 1007.7 0.0
21/05:30am 20.6 18.3 8.9 47 6.2 WSW 11 15 6 8 1008.0 1007.3 0.0
21/05:00am 22.0 18.5 8.9 43 7.0 WSW 17 22 9 12 1008.2 1007.5 0.0
21/04:30am 20.5 17.5 7.5 43 6.7 WNW 13 17 7 9 1007.4 1006.7 0.0
21/04:00am 20.7 18.2 6.6 40 7.2 WNW 9 11 5 6 1007.0 1006.3 0.0
21/03:30am 21.2 18.9 5.5 36 7.9 WNW 7 9 4 5 1007.0 1006.3 0.0
21/03:00am 22.8 20.3 4.8 31 9.0 WNW 7 9 4 5 1007.1 1006.4 0.0
21/02:30am 22.8 20.2 4.3 30 9.2 NNW 7 11 4 6 1007.6 1006.9 0.0
21/02:00am 25.5 23.3 3.5 24 11.0 NNE 4 9 2 5 1007.8 1007.1 0.0
21/01:30am 25.9 22.1 3.8 24 11.1 NNE 13 17 7 9 1008.1 1007.4 0.0
21/01:00am 27.7 24.8 2.7 20 12.5 SSW 7 9 4 5 1008.0 1007.3 0.0
21/12:30am 29.0 22.1 2.3 18 13.3 SW 28 33 15 18 1008.4 1007.7 0.0
21/12:00am 29.1 23.4 0.7 16 13.8 WSW 20 28 11 15 1008.4 1007.7 0.0
 
Date/Time
EDT
Temp
°C
App
Temp
°C
Dew
Point
Rel
Hum
%
Delta-T
°C
Wind Press
QNH
hPa
Press
MSL
hPa
Rain
since 9 am
mm
Dir
 
Spd
km/h
Gust
km/h
Spd
kts
Gust
kts
20/11:30pm 29.1 24.1 -1.1 14 14.2 SSW 15 17 8 9 1007.8 1007.1 0.0
20/11:00pm 30.8 24.8 -3.0 11 15.6 N 19 24 10 13 1006.9 1006.2 0.0
20/10:30pm 30.4 25.6 -2.2 12 15.2 NW 13 17 7 9 1007.1 1006.4 0.0
20/10:00pm 31.0 25.8 -2.9 11 15.7 NW 15 26 8 14 1007.4 1006.7 0.0
20/09:30pm 30.5 25.0 -2.1 12 15.2 N 17 20 9 11 1007.0 1006.3 0.0
20/09:00pm 31.3 26.3 -1.5 12 15.6 N 15 20 8 11 1006.9 1006.2 0.0
20/08:30pm 30.0 25.2 -2.5 12 15.0 NNW 13 15 7 8 1006.8 1006.1 0.0
20/08:00pm 31.2 26.4 -2.7 11 15.8 NNW 13 15 7 8 1006.8 1006.1 0.0
20/07:30pm 32.9 27.3 -2.7 10 16.7 NW 17 19 9 10 1006.6 1005.9 0.0
20/07:00pm 34.6 27.7 -2.9 9 17.8 NW 24 32 13 17 1006.4 1005.7 0.0
20/06:30pm 35.6 28.6 -3.7 8 18.5 NW 24 35 13 19 1006.2 1005.5 0.0
20/06:00pm 36.4 30.2 -3.1 8 18.9 WNW 20 33 11 18 1006.2 1005.5 0.0
20/05:30pm 36.5 30.7 -1.4 9 18.6 NW 19 24 10 13 1006.5 1005.8 0.0
20/05:00pm 35.5 28.3 -2.2 9 18.2 NW 26 39 14 21 1006.6 1005.9 0.0
20/04:30pm 36.4 29.1 -3.1 8 18.9 NNW 26 39 14 21 1006.9 1006.2 0.0
20/04:00pm 36.2 29.8 -1.7 9 18.6 NW 22 39 12 21 1007.4 1006.7 0.0
20/03:30pm 36.2 30.2 -1.7 9 18.5 NNW 20 30 11 16 1007.9 1007.2 0.0
20/03:17pm 34.9 27.2 -2.6 9 17.9 NNW 28 50 15 27 1008.0 1007.3 0.0
20/03:00pm 36.6 29.1 -1.4 9 18.7 N 28 37 15 20 1008.2 1007.5 0.0
20/02:30pm 34.2 28.2 -1.7 10 17.3 NW 20 33 11 18 1008.8 1008.0 0.0
20/02:00pm 35.3 28.6 -0.9 10 17.8 N 24 37 13 20 1009.3 1008.5 0.0
20/01:30pm 35.1 27.8 -2.5 9 18.0 NW 26 41 14 22 1009.8 1009.1 0.0

Other Formats:

Comma delimited format used in spreadsheet applications
http://www.bom.gov.au/fwo/IDN60801/IDN60801.95708.axf

JavaScript Object Notation format (JSON) in row-major order
http://www.bom.gov.au/fwo/IDN60801/IDN60801.95708.json